Choose a state:
Locations above flood stage
(70 streamgages are currently reporting water levels above the National Weather Service defined flood stage)
USGS
station
ID
USGS station name NWS
flood
stage
(ft)
Most recent
stage
(ft)
Most recent
flow
(cfs)
Historical
peaks
(cfs)
Most recent
local
date/time
NWS
station
ID
07349650(COE) Byu Bodcau Lake nr Shreveport, LA (Landside) 172 175.13

 

2024-05-19 10:00:00 LBBL1
08018500Sabine Rv nr Mineola, TX 14 16.11 3,400 76,000 2024-05-19 10:15:00 MLAT2
08032000Neches Rv nr Neches, TX 12 13.08 1,720 45,500 2024-05-19 10:30:00 NCST2
08032500Neches Rv nr Alto, TX 16 17.56 4,850 50,000 2024-05-19 10:15:00 ATOT2
08037180Angelina Rv at Hwy 59 nr Lufkin, TX 161 164.38 6,210 19,700 2024-05-19 10:30:00 LUFT2
08030500Sabine Rv nr Ruliff, TX 24 27.53 68,500 206,000 2024-05-19 09:45:00 DWYT2
13075500PORTNEUF RIVER AT POCATELLO ID 8.5 9.38 825 2,990 2024-05-19 09:00:00 PIHI1
08033000Neches Rv nr Diboll, TX 12 14.98 14,900 110,000 2024-05-19 10:15:00 DIBT2
09213700BIG SANDY RESERVOIR NEAR FARSON, WY 6760 6762.51

 

  2024-05-19 09:15:00 BIGW4
08041780Neches Rv Saltwater Barrier at Beaumont, TX 4 9.66 62,700 232,000 2024-05-19 10:15:00 NSBT2
08013000Calcasieu River nr Glenmora, LA 12 14.17 3,700 59,900 2024-05-19 10:30:00 GLML1
08020000Sabine Rv nr Gladewater, TX 26 27.92 7,320 138,000 2024-05-19 10:15:00 GDWT2
08066000Trinity Rv at Riverside, TX 133.5 139.14

 

121,000 2024-05-19 10:30:00 RVRT2
08067100Trinity Rv nr Moss Bluff, TX 12.2 15.34

 

  2024-05-19 10:30:00 MBFT2
08038000Attoyac Bayou nr Chireno, TX 14 16.51 2,290 50,000 2024-05-19 10:30:00 ATBT2
08041000Neches Rv at Evadale, TX 17 20.12 43,100 125,000 2024-05-19 10:00:00 EVDT2
08066250Trinity Rv nr Goodrich, TX 36 41.43 93,400 125,000 2024-05-19 10:45:00 GRIT2
08110500Navasota Rv nr Easterly, TX 19 19.99 4,230 90,000 2024-05-19 10:00:00 EAST2
08067000Trinity Rv at Liberty, TX 26 30.32 76,700 135,000 2024-05-19 10:15:00 LBYT2
05587060ILLINOIS RIVER AT HARDIN, IL 25 26.33

 

  2024-05-19 09:30:00 HARI2
07020500Mississippi River at Chester, IL 27 28.31 462,000 1,060,000 2024-05-19 10:30:00 CHSI2
05586100ILLINOIS RIVER AT VALLEY CITY, IL 14 14.06 48,600 123,000 2024-05-19 09:30:00 VALI2
07020850Mississippi River at Cape Girardeau, MO 32 32.86

 

  2024-05-19 10:30:00 CPGM7
08030520Sabine Rv at Intl Paper nr Orange, TX 7 9.18

 

2024-05-19 10:45:00 SIPT2
08041700Pine Island Bayou nr Sour Lake, TX 25 26.69 2,720 50,500 2024-05-19 10:45:00 SOLT2
08026290Sabine Rv at CR 2082 nr Burkeville, TX 80 88.43

 

2024-05-19 10:40:00 BUKT2
08028500Sabine Rv nr Bon Wier, TX 30 34.81 45,600 279,000 2024-05-19 10:15:00 BWRT2
08020900Sabine Rv bl Longview, TX 25 25.02 8,850 40,100 2024-05-19 10:00:00 LONT2
08040600Neches Rv nr Town Bluff, TX 68 74.98 35,600 120,000 2024-05-19 10:00:00 TBFT2
08116650Brazos Rv nr Rosharon, TX 43 44.72 55,100 133,000 2024-05-19 09:45:00 ROST2
05311000MINNESOTA RIVER AT MONTEVIDEO, MN 14 14.46 7,450 47,500 2024-05-19 10:00:00 MVOM5
08116850Brazos Rv nr West Columbia, TX 23.00 24.26 56,600 129,000 2024-05-19 10:30:00 WCBT2
03612600OHIO RIVER AT OLMSTED, IL 36 40.22 376,000 1,190,000 2024-05-19 10:45:00 OLMI2
02171700SANTEE RIVER NR JAMESTOWN, SC 10 12.81 22,300 103,000 2024-05-19 11:30:00 JAMS1
08033500Neches Rv nr Rockland, TX 26 29.11 31,900 62,000 2024-05-19 10:00:00 ROKT2
08041300Village Ck at US Hwy 69 nr Village Mills, TX 70 73.16 4,370 6,170 2024-05-19 10:00:00 VIMT2
08013500Calcasieu River near Oberlin, LA 13 16.26 8,360 72,800 2024-05-19 10:15:00 OBCL1
08026000Sabine Rv nr Burkeville, TX 36 37.03 40,700 254,000 2024-05-19 10:15:00 BRVT2
08015500Calcasieu River near Kinder, LA 16 19.65 26,800 182,000 2024-05-19 10:15:00 KDRL1
08041500Village Ck nr Kountze, TX 17 21.98 24,900 182,000 2024-05-19 10:30:00 KOUT2
023177483WITHLACOOCHEE R AT SKIPPER BRIDGE RD,NR BEMISS, GA 14.70 17.68 6,890 37,500 2024-05-19 11:30:00 VDSG1
05501600Mississippi River at Hannibal, MO 17 17.06

 

  2024-05-19 10:00:00 HNNM7
08070200E Fk San Jacinto Rv nr New Caney, TX 58 65.75 9,700 120,000 2024-05-19 10:00:00 NCET2
02489500Pearl River near Bogalusa, LA 18 18.89 19,500 133,000 2024-05-19 10:00:00 BXAL1
07372200Little River near Rochelle, LA 32 33.27 12,000 133,000 2024-05-19 10:30:00 RHLL1
02198500SAVANNAH RIVER NEAR CLYO, GA 11 12.09 16,200 270,000 2024-05-19 11:15:00 CLYG1
02492600Pearl River at Pearl River, LA 14 15.97

 

230,000 2024-05-19 10:00:00 PERL1
08014500Ouiska Chitto Creek Near Oberlin, LA 15 17.29 7,530 144,000 2024-05-19 10:15:00 MTTL1
08030530Sabine Rv at I-10 nr Orange, TX 3 4.01

 

2024-05-19 10:45:00 TMYT2
02328522OCHLOCKONEE RIVER NR CONCORD, FLA. 36 36.36 4,980 54,400 2024-05-19 11:45:00 CONF1
08041749Pine Island Bayou abv BI Pump Plant, Beaumont, TX 11 13.22 6,370 71,500 2024-05-19 10:00:00 BIPT2
08066300Menard Ck nr Rye, TX 20 20.40 1,450 15,200 2024-05-19 10:15:00 RYET2
08031000Cow Bayou nr Mauriceville, TX 17 17.55 1,440 7,010 2024-05-19 10:00:00 MCVT2
02131000PEE DEE RIVER AT PEEDEE, SC 19 21.08 23,000 220,000 2024-05-19 11:00:00 PDES1
01117500PAWCATUCK RIVER AT WOOD RIVER JUNCTION, RI 5 5.32 851 3,490 2024-05-19 10:45:00 WODR1
08010000Bayou Des Cannes near Eunice, LA 16 17.27 2,970 11,900 2024-05-19 10:15:00 BDCL1
03360730WHITE RIVER NEAR EDWARDSPORT, IN 15 18.23 21,300 61,400 2024-05-19 10:30:00 EDWI3
03360500WHITE RIVER AT NEWBERRY, IN 13 15.35 23,500 138,000 2024-05-19 10:30:00 NWBI3
02318500WITHLACOOCHEE RIVER AT US 84, NEAR QUITMAN, GA 20.50 21.88 10,200 62,000 2024-05-19 11:00:00 QUTG1
08012150Mermentau River At Mermentau, LA 4 4.28 11,300 58,000 2024-05-19 10:15:00 MRML1
02227500LITTLE SATILLA RIVER NEAR OFFERMAN, GA 9 9.46 1,430 38,000 2024-05-19 11:45:00 OFFG1
08012000Bayou Nezpique near Basile, LA 22 23.58 6,610 35,800 2024-05-19 10:15:00 BSLL1
02226362SATILLA RIVER AT GA 158, NEAR WAYCROSS, GA 14 14.70 3,960 34,500 2024-05-19 11:30:00 TMOG1
02326900ST. MARKS RIVER NEAR NEWPORT, FLA. 8 8.20 1,710 5,890 2024-05-19 11:00:00 NEPF1
13073000PORTNEUF RIVER AT TOPAZ ID 4 4.00 527 7,120 2024-05-19 09:15:00 TOPI1
02327355OCHLOCKONEE RIVER AT GA 188, NEAR COOLIDGE, GA 13 13.95 4,250 35,000 2024-05-19 11:30:00 CLDG1
02227270ALABAHA RIVER AT GA 203, NEAR BLACKSHEAR, GA 9 9.50 1,700 21,000 2024-05-19 11:30:00 ABAG1
03365500EAST FORK WHITE RIVER AT SEYMOUR, IN 12 12.94 10,700 120,000 2024-05-19 09:45:00 SERI3
02488500PEARL RIVER NR MONTICELLO, MS 22 22.43 26,600 122,000 2024-05-19 10:15:00 MTCM6
02365769BRUCE CREEK AT SH 81 NR REDBAY, FL 18 18.21 1,590 36,800 2024-05-19 10:45:00 BREF1